sensor_id;sensor_type;location;lat;lon;timestamp;pressure;altitude;pressure_sealevel;temperature;humidity
70011;BME280;59543;37.950;-122.338;2023-02-13T00:00:35;101162.78;;;16.16;56.03
70011;BME280;59543;37.950;-122.338;2023-02-13T00:03:01;101163.84;;;15.98;55.67
70011;BME280;59543;37.950;-122.338;2023-02-13T00:05:27;101158.31;;;15.59;55.77
70011;BME280;59543;37.950;-122.338;2023-02-13T00:07:53;101159.00;;;15.53;57.21
70011;BME280;59543;37.950;-122.338;2023-02-13T00:10:19;101165.06;;;15.55;58.28
70011;BME280;59543;37.950;-122.338;2023-02-13T00:12:45;101155.94;;;15.48;56.36
70011;BME280;59543;37.950;-122.338;2023-02-13T00:15:11;101159.34;;;15.25;57.43
70011;BME280;59543;37.950;-122.338;2023-02-13T00:17:37;101156.97;;;15.30;57.91
70011;BME280;59543;37.950;-122.338;2023-02-13T00:20:03;101156.94;;;14.98;60.50
70011;BME280;59543;37.950;-122.338;2023-02-13T00:22:29;101154.91;;;15.16;61.53
70011;BME280;59543;37.950;-122.338;2023-02-13T00:24:55;101153.22;;;14.91;62.39
70011;BME280;59543;37.950;-122.338;2023-02-13T00:27:20;101152.19;;;14.92;60.49
70011;BME280;59543;37.950;-122.338;2023-02-13T00:29:46;101158.47;;;14.92;60.69
70011;BME280;59543;37.950;-122.338;2023-02-13T00:32:13;101153.50;;;14.63;62.06
70011;BME280;59543;37.950;-122.338;2023-02-13T00:34:38;101156.03;;;14.64;63.84
70011;BME280;59543;37.950;-122.338;2023-02-13T00:37:04;101151.16;;;14.68;63.86
70011;BME280;59543;37.950;-122.338;2023-02-13T00:39:30;101149.97;;;14.62;63.63
70011;BME280;59543;37.950;-122.338;2023-02-13T00:41:56;101149.69;;;14.39;64.53
70011;BME280;59543;37.950;-122.338;2023-02-13T00:44:22;101152.19;;;14.33;64.12
70011;BME280;59543;37.950;-122.338;2023-02-13T00:46:48;101153.97;;;14.50;63.54
70011;BME280;59543;37.950;-122.338;2023-02-13T00:49:14;101149.53;;;14.07;65.07
70011;BME280;59543;37.950;-122.338;2023-02-13T00:51:40;101146.97;;;13.97;66.05
70011;BME280;59543;37.950;-122.338;2023-02-13T00:54:06;101146.59;;;14.26;65.95
70011;BME280;59543;37.950;-122.338;2023-02-13T00:56:31;101146.69;;;14.16;66.02
70011;BME280;59543;37.950;-122.338;2023-02-13T00:58:57;101152.81;;;14.18;66.73
70011;BME280;59543;37.950;-122.338;2023-02-13T01:01:23;101146.13;;;13.97;67.22
70011;BME280;59543;37.950;-122.338;2023-02-13T01:03:49;101135.25;;;13.88;67.76
70011;BME280;59543;37.950;-122.338;2023-02-13T01:06:15;101148.25;;;13.85;68.02
70011;BME280;59543;37.950;-122.338;2023-02-13T01:08:41;101146.06;;;13.88;68.40
70011;BME280;59543;37.950;-122.338;2023-02-13T01:11:07;101140.94;;;13.77;69.23
70011;BME280;59543;37.950;-122.338;2023-02-13T01:13:33;101141.03;;;13.93;69.20
70011;BME280;59543;37.950;-122.338;2023-02-13T01:15:59;101139.94;;;13.78;69.61
70011;BME280;59543;37.950;-122.338;2023-02-13T01:18:25;101139.81;;;13.62;68.94
70011;BME280;59543;37.950;-122.338;2023-02-13T01:20:58;101137.13;;;13.62;69.14
70011;BME280;59543;37.950;-122.338;2023-02-13T01:23:24;101141.78;;;13.52;69.53
70011;BME280;59543;37.950;-122.338;2023-02-13T01:25:50;101134.53;;;13.52;69.43
70011;BME280;59543;37.950;-122.338;2023-02-13T01:28:16;101136.53;;;13.50;69.90
70011;BME280;59543;37.950;-122.338;2023-02-13T01:30:42;101133.09;;;13.40;70.62
70011;BME280;59543;37.950;-122.338;2023-02-13T01:33:11;101133.09;;;13.40;70.58
70011;BME280;59543;37.950;-122.338;2023-02-13T01:35:40;101138.28;;;13.33;71.07
70011;BME280;59543;37.950;-122.338;2023-02-13T01:38:06;101137.97;;;13.36;70.99
70011;BME280;59543;37.950;-122.338;2023-02-13T01:40:32;101133.81;;;13.24;71.65
70011;BME280;59543;37.950;-122.338;2023-02-13T01:42:58;101138.66;;;13.02;73.19
70011;BME280;59543;37.950;-122.338;2023-02-13T01:45:28;101144.13;;;13.11;73.21
70011;BME280;59543;37.950;-122.338;2023-02-13T01:48:04;101143.84;;;12.96;74.22
70011;BME280;59543;37.950;-122.338;2023-02-13T01:50:38;101145.16;;;12.74;75.82
70011;BME280;59543;37.950;-122.338;2023-02-13T01:53:07;101143.22;;;12.66;76.34
70011;BME280;59543;37.950;-122.338;2023-02-13T01:55:38;101142.81;;;12.43;77.52
70011;BME280;59543;37.950;-122.338;2023-02-13T01:58:08;101141.50;;;12.47;76.99
70011;BME280;59543;37.950;-122.338;2023-02-13T02:00:37;101135.50;;;12.53;77.09
70011;BME280;59543;37.950;-122.338;2023-02-13T02:03:06;101147.56;;;12.31;78.13
70011;BME280;59543;37.950;-122.338;2023-02-13T02:05:33;101147.09;;;12.36;77.69
70011;BME280;59543;37.950;-122.338;2023-02-13T02:08:00;101149.66;;;12.38;77.53
70011;BME280;59543;37.950;-122.338;2023-02-13T02:10:27;101145.75;;;12.22;78.67
70011;BME280;59543;37.950;-122.338;2023-02-13T02:15:25;101146.19;;;12.18;78.70
70011;BME280;59543;37.950;-122.338;2023-02-13T02:17:51;101145.47;;;12.25;77.77
70011;BME280;59543;37.950;-122.338;2023-02-13T02:20:21;101135.94;;;12.21;78.05
70011;BME280;59543;37.950;-122.338;2023-02-13T02:39:35;101152.59;;;11.79;80.65
70011;BME280;59543;37.950;-122.338;2023-02-13T02:49:59;101146.69;;;11.56;81.37
70011;BME280;59543;37.950;-122.338;2023-02-13T02:52:32;101142.72;;;11.51;81.43
70011;BME280;59543;37.950;-122.338;2023-02-13T02:57:45;101140.06;;;11.41;81.09
70011;BME280;59543;37.950;-122.338;2023-02-13T03:00:31;101135.66;;;11.40;81.30
70011;BME280;59543;37.950;-122.338;2023-02-13T03:03:18;101146.16;;;11.24;82.63
70011;BME280;59543;37.950;-122.338;2023-02-13T03:06:05;101143.91;;;11.19;83.51
70011;BME280;59543;37.950;-122.338;2023-02-13T03:08:37;101137.38;;;11.21;83.22
70011;BME280;59543;37.950;-122.338;2023-02-13T03:11:23;101138.78;;;11.35;82.35
70011;BME280;59543;37.950;-122.338;2023-02-13T03:14:08;101140.09;;;11.31;82.37
70011;BME280;59543;37.950;-122.338;2023-02-13T03:16:35;101137.66;;;11.18;82.73
70011;BME280;59543;37.950;-122.338;2023-02-13T03:19:22;101139.09;;;11.13;82.75
70011;BME280;59543;37.950;-122.338;2023-02-13T03:30:18;101145.78;;;10.99;85.77
70011;BME280;59543;37.950;-122.338;2023-02-13T03:32:56;101146.06;;;10.96;85.94
70011;BME280;59543;37.950;-122.338;2023-02-13T03:35:30;101149.59;;;10.87;86.48
70011;BME280;59543;37.950;-122.338;2023-02-13T03:46:26;101157.19;;;10.52;89.95
70011;BME280;59543;37.950;-122.338;2023-02-13T03:48:53;101157.03;;;10.44;91.05
70011;BME280;59543;37.950;-122.338;2023-02-13T03:51:43;101163.00;;;10.48;90.22
70011;BME280;59543;37.950;-122.338;2023-02-13T03:54:14;101163.38;;;10.34;90.73
70011;BME280;59543;37.950;-122.338;2023-02-13T03:56:41;101176.59;;;10.25;90.84
70011;BME280;59543;37.950;-122.338;2023-02-13T03:59:28;101168.28;;;10.28;90.92
70011;BME280;59543;37.950;-122.338;2023-02-13T04:02:09;101167.00;;;10.23;90.67
70011;BME280;59543;37.950;-122.338;2023-02-13T04:04:50;101173.22;;;10.23;90.94
70011;BME280;59543;37.950;-122.338;2023-02-13T04:07:18;101173.22;;;10.23;90.25
70011;BME280;59543;37.950;-122.338;2023-02-13T04:10:00;101169.19;;;10.29;90.47
70011;BME280;59543;37.950;-122.338;2023-02-13T04:12:34;101159.25;;;10.29;89.98
70011;BME280;59543;37.950;-122.338;2023-02-13T04:18:16;101169.81;;;10.21;90.20
70011;BME280;59543;37.950;-122.338;2023-02-13T04:20:25;101165.97;;;10.14;90.98
70011;BME280;59543;37.950;-122.338;2023-02-13T04:22:51;101167.66;;;10.15;91.11
70011;BME280;59543;37.950;-122.338;2023-02-13T04:25:17;101157.84;;;10.04;91.30
70011;BME280;59543;37.950;-122.338;2023-02-13T04:27:44;101162.84;;;10.09;91.14
70011;BME280;59543;37.950;-122.338;2023-02-13T04:30:10;101163.69;;;10.10;90.95
70011;BME280;59543;37.950;-122.338;2023-02-13T04:32:36;101166.63;;;10.06;90.70
70011;BME280;59543;37.950;-122.338;2023-02-13T04:35:02;101166.16;;;9.92;92.26
70011;BME280;59543;37.950;-122.338;2023-02-13T04:37:28;101166.69;;;9.85;93.27
70011;BME280;59543;37.950;-122.338;2023-02-13T04:39:54;101162.06;;;9.97;92.18
70011;BME280;59543;37.950;-122.338;2023-02-13T04:42:20;101166.22;;;9.80;92.87
70011;BME280;59543;37.950;-122.338;2023-02-13T04:44:46;101168.91;;;9.80;92.66
70011;BME280;59543;37.950;-122.338;2023-02-13T04:47:12;101169.28;;;9.66;93.99
70011;BME280;59543;37.950;-122.338;2023-02-13T04:49:37;101163.38;;;9.72;94.71
70011;BME280;59543;37.950;-122.338;2023-02-13T04:52:03;101162.03;;;9.57;94.26
70011;BME280;59543;37.950;-122.338;2023-02-13T04:54:29;101165.88;;;9.64;93.90
70011;BME280;59543;37.950;-122.338;2023-02-13T04:56:55;101166.22;;;9.80;92.94
70011;BME280;59543;37.950;-122.338;2023-02-13T04:59:21;101167.63;;;9.75;92.43
70011;BME280;59543;37.950;-122.338;2023-02-13T05:01:46;101170.31;;;9.75;92.32
70011;BME280;59543;37.950;-122.338;2023-02-13T05:04:12;101174.19;;;9.61;92.70
70011;BME280;59543;37.950;-122.338;2023-02-13T05:06:40;101165.09;;;9.52;92.85
70011;BME280;59543;37.950;-122.338;2023-02-13T05:09:07;101157.88;;;9.53;93.57
70011;BME280;59543;37.950;-122.338;2023-02-13T05:11:33;101163.25;;;9.53;93.33
70011;BME280;59543;37.950;-122.338;2023-02-13T05:13:58;101167.66;;;9.54;93.78
70011;BME280;59543;37.950;-122.338;2023-02-13T05:16:24;101173.03;;;9.54;93.70
70011;BME280;59543;37.950;-122.338;2023-02-13T05:18:50;101166.44;;;9.68;93.38
70011;BME280;59543;37.950;-122.338;2023-02-13T05:21:19;101167.19;;;9.49;93.26
70011;BME280;59543;37.950;-122.338;2023-02-13T05:24:03;101170.78;;;9.38;94.24
70011;BME280;59543;37.950;-122.338;2023-02-13T05:26:29;101170.25;;;9.44;93.75
70011;BME280;59543;37.950;-122.338;2023-02-13T05:28:55;101167.03;;;9.50;92.99
70011;BME280;59543;37.950;-122.338;2023-02-13T05:31:39;101170.88;;;9.48;92.88
70011;BME280;59543;37.950;-122.338;2023-02-13T05:34:05;101166.78;;;9.32;92.62
70011;BME280;59543;37.950;-122.338;2023-02-13T05:36:31;101162.78;;;9.06;91.77
70011;BME280;59543;37.950;-122.338;2023-02-13T05:38:57;101147.44;;;8.76;90.74
70011;BME280;59543;37.950;-122.338;2023-02-13T05:41:22;101136.66;;;8.43;90.19
70011;BME280;59543;37.950;-122.338;2023-02-13T05:43:48;101137.38;;;8.34;90.04
70011;BME280;59543;37.950;-122.338;2023-02-13T05:46:14;101135.94;;;8.19;89.70
70011;BME280;59543;37.950;-122.338;2023-02-13T05:48:40;101131.34;;;8.10;90.15
70011;BME280;59543;37.950;-122.338;2023-02-13T05:51:06;101133.88;;;8.11;89.99
70011;BME280;59543;37.950;-122.338;2023-02-13T05:53:32;101134.63;;;8.13;89.74
70011;BME280;59543;37.950;-122.338;2023-02-13T05:56:01;101145.09;;;8.16;89.31
70011;BME280;59543;37.950;-122.338;2023-02-13T05:58:28;101152.28;;;8.05;89.92
70011;BME280;59543;37.950;-122.338;2023-02-13T06:00:54;101161.78;;;7.97;89.88
70011;BME280;59543;37.950;-122.338;2023-02-13T06:03:21;101161.06;;;8.07;90.29
70011;BME280;59543;37.950;-122.338;2023-02-13T06:05:47;101162.50;;;8.22;88.54
70011;BME280;59543;37.950;-122.338;2023-02-13T06:08:12;101162.41;;;8.12;87.51
70011;BME280;59543;37.950;-122.338;2023-02-13T06:10:38;101161.50;;;8.12;87.50
70011;BME280;59543;37.950;-122.338;2023-02-13T06:13:04;101166.91;;;8.00;87.65
70011;BME280;59543;37.950;-122.338;2023-02-13T06:15:30;101166.13;;;7.76;87.06
70011;BME280;59543;37.950;-122.338;2023-02-13T06:17:56;101157.75;;;7.69;86.33
70011;BME280;59543;37.950;-122.338;2023-02-13T06:20:22;101158.19;;;7.52;84.50
70011;BME280;59543;37.950;-122.338;2023-02-13T06:22:48;101148.09;;;7.44;85.60
70011;BME280;59543;37.950;-122.338;2023-02-13T06:25:15;101140.91;;;7.45;87.16
70011;BME280;59543;37.950;-122.338;2023-02-13T06:27:41;101149.22;;;7.53;87.55
70011;BME280;59543;37.950;-122.338;2023-02-13T06:30:07;101139.59;;;7.50;88.14
70011;BME280;59543;37.950;-122.338;2023-02-13T06:32:33;101129.88;;;7.49;89.55
70011;BME280;59543;37.950;-122.338;2023-02-13T06:34:58;101135.81;;;7.42;91.34
70011;BME280;59543;37.950;-122.338;2023-02-13T06:37:24;101126.69;;;7.44;91.76
70011;BME280;59543;37.950;-122.338;2023-02-13T06:39:50;101128.28;;;7.47;91.70
70011;BME280;59543;37.950;-122.338;2023-02-13T06:42:16;101127.91;;;7.51;92.28
70011;BME280;59543;37.950;-122.338;2023-02-13T06:44:43;101121.19;;;7.46;92.44
70011;BME280;59543;37.950;-122.338;2023-02-13T06:47:09;101113.91;;;7.48;91.80
70011;BME280;59543;37.950;-122.338;2023-02-13T06:49:35;101119.75;;;7.42;91.29
70011;BME280;59543;37.950;-122.338;2023-02-13T06:52:01;101116.81;;;7.45;90.46
70011;BME280;59543;37.950;-122.338;2023-02-13T06:54:27;101129.34;;;7.33;88.77
70011;BME280;59543;37.950;-122.338;2023-02-13T06:56:52;101128.16;;;7.37;88.05
70011;BME280;59543;37.950;-122.338;2023-02-13T06:59:18;101120.66;;;7.07;86.61
70011;BME280;59543;37.950;-122.338;2023-02-13T07:01:44;101123.16;;;6.97;86.59
70011;BME280;59543;37.950;-122.338;2023-02-13T07:04:10;101119.91;;;7.05;87.04
70011;BME280;59543;37.950;-122.338;2023-02-13T07:06:36;101119.75;;;6.95;87.81
70011;BME280;59543;37.950;-122.338;2023-02-13T07:09:02;101118.50;;;6.88;88.54
70011;BME280;59543;37.950;-122.338;2023-02-13T07:11:28;101122.91;;;7.00;88.46
70011;BME280;59543;37.950;-122.338;2023-02-13T07:13:54;101120.84;;;6.93;88.75
70011;BME280;59543;37.950;-122.338;2023-02-13T07:16:20;101119.53;;;6.98;89.28
70011;BME280;59543;37.950;-122.338;2023-02-13T07:18:46;101120.00;;;6.92;90.13
70011;BME280;59543;37.950;-122.338;2023-02-13T07:21:12;101120.94;;;6.91;90.61
70011;BME280;59543;37.950;-122.338;2023-02-13T07:23:38;101121.22;;;6.99;90.22
70011;BME280;59543;37.950;-122.338;2023-02-13T07:26:04;101119.03;;;6.93;90.19
70011;BME280;59543;37.950;-122.338;2023-02-13T07:28:30;101118.50;;;6.88;89.73
70011;BME280;59543;37.950;-122.338;2023-02-13T07:30:56;101115.84;;;6.88;90.17
70011;BME280;59543;37.950;-122.338;2023-02-13T07:33:22;101117.78;;;6.86;89.57
70011;BME280;59543;37.950;-122.338;2023-02-13T07:35:48;101116.06;;;6.85;89.99
70011;BME280;59543;37.950;-122.338;2023-02-13T07:38:15;101105.88;;;6.90;89.83
70011;BME280;59543;37.950;-122.338;2023-02-13T07:40:41;101105.13;;;6.88;89.28
70011;BME280;59543;37.950;-122.338;2023-02-13T07:43:07;101099.63;;;6.78;88.77
70011;BME280;59543;37.950;-122.338;2023-02-13T07:45:33;101102.09;;;6.81;88.10
70011;BME280;59543;37.950;-122.338;2023-02-13T07:47:58;101102.38;;;6.66;88.03
70011;BME280;59543;37.950;-122.338;2023-02-13T07:50:24;101096.44;;;6.62;87.54
70011;BME280;59543;37.950;-122.338;2023-02-13T07:55:20;101089.25;;;6.38;88.84
70011;BME280;59543;37.950;-122.338;2023-02-13T07:57:45;101082.31;;;6.36;88.64
70011;BME280;59543;37.950;-122.338;2023-02-13T08:00:11;101079.97;;;6.31;88.89
70011;BME280;59543;37.950;-122.338;2023-02-13T08:02:37;101075.09;;;6.25;88.94
70011;BME280;59543;37.950;-122.338;2023-02-13T08:05:03;101073.06;;;6.29;88.89
70011;BME280;59543;37.950;-122.338;2023-02-13T08:07:29;101074.59;;;6.44;87.72
70011;BME280;59543;37.950;-122.338;2023-02-13T08:09:55;101066.59;;;6.44;87.81
70011;BME280;59543;37.950;-122.338;2023-02-13T08:12:40;101066.06;;;6.39;88.40
70011;BME280;59543;37.950;-122.338;2023-02-13T08:15:06;101066.00;;;6.28;87.90
70011;BME280;59543;37.950;-122.338;2023-02-13T08:17:32;101058.13;;;6.26;87.82
70011;BME280;59543;37.950;-122.338;2023-02-13T08:19:58;101054.75;;;6.11;88.37
70011;BME280;59543;37.950;-122.338;2023-02-13T08:22:24;101055.97;;;5.94;88.99
70011;BME280;59543;37.950;-122.338;2023-02-13T08:24:49;101057.44;;;5.99;90.22
70011;BME280;59543;37.950;-122.338;2023-02-13T08:27:15;101053.25;;;6.07;89.59
70011;BME280;59543;37.950;-122.338;2023-02-13T08:29:41;101052.19;;;6.10;88.75
70011;BME280;59543;37.950;-122.338;2023-02-13T08:32:07;101055.69;;;6.10;89.88
70011;BME280;59543;37.950;-122.338;2023-02-13T08:34:33;101059.56;;;6.06;89.68
70011;BME280;59543;37.950;-122.338;2023-02-13T08:37:00;101055.44;;;6.02;89.72
70011;BME280;59543;37.950;-122.338;2023-02-13T08:39:25;101055.81;;;6.09;90.59
70011;BME280;59543;37.950;-122.338;2023-02-13T08:41:51;101063.31;;;6.04;90.28
70011;BME280;59543;37.950;-122.338;2023-02-13T08:44:17;101069.00;;;5.99;89.95
70011;BME280;59543;37.950;-122.338;2023-02-13T08:46:43;101073.38;;;5.74;91.48
70011;BME280;59543;37.950;-122.338;2023-02-13T08:49:09;101067.97;;;5.63;91.99
70011;BME280;59543;37.950;-122.338;2023-02-13T08:51:35;101066.34;;;5.73;92.26
70011;BME280;59543;37.950;-122.338;2023-02-13T08:54:00;101075.28;;;5.85;92.85
70011;BME280;59543;37.950;-122.338;2023-02-13T08:56:26;101073.59;;;5.97;93.52
70011;BME280;59543;37.950;-122.338;2023-02-13T08:58:52;101069.31;;;5.82;93.96
70011;BME280;59543;37.950;-122.338;2023-02-13T09:01:20;101063.13;;;5.81;95.08
70011;BME280;59543;37.950;-122.338;2023-02-13T09:03:48;101069.31;;;5.82;94.74
70011;BME280;59543;37.950;-122.338;2023-02-13T09:06:14;101072.19;;;5.91;96.30
70011;BME280;59543;37.950;-122.338;2023-02-13T09:08:39;101069.31;;;5.94;96.23
70011;BME280;59543;37.950;-122.338;2023-02-13T09:11:05;101072.53;;;6.00;97.26
70011;BME280;59543;37.950;-122.338;2023-02-13T09:13:31;101070.72;;;6.24;99.16
70011;BME280;59543;37.950;-122.338;2023-02-13T09:15:59;101080.19;;;6.52;100.00
70011;BME280;59543;37.950;-122.338;2023-02-13T09:18:26;101075.75;;;6.64;100.00
70011;BME280;59543;37.950;-122.338;2023-02-13T09:20:58;101080.91;;;6.78;100.00
70011;BME280;59543;37.950;-122.338;2023-02-13T09:23:25;101077.69;;;6.97;100.00
70011;BME280;59543;37.950;-122.338;2023-02-13T09:25:51;101071.53;;;7.08;100.00
70011;BME280;59543;37.950;-122.338;2023-02-13T09:28:17;101071.41;;;7.21;100.00
70011;BME280;59543;37.950;-122.338;2023-02-13T09:30:42;101076.50;;;7.13;100.00
70011;BME280;59543;37.950;-122.338;2023-02-13T09:33:09;101067.97;;;6.96;100.00
70011;BME280;59543;37.950;-122.338;2023-02-13T09:35:36;101073.69;;;6.68;100.00
70011;BME280;59543;37.950;-122.338;2023-02-13T09:38:05;101080.03;;;6.67;100.00
70011;BME280;59543;37.950;-122.338;2023-02-13T09:40:34;101061.16;;;6.57;100.00
70011;BME280;59543;37.950;-122.338;2023-02-13T09:43:09;101065.38;;;6.48;99.93
70011;BME280;59543;37.950;-122.338;2023-02-13T09:45:36;101066.97;;;6.51;98.53
70011;BME280;59543;37.950;-122.338;2023-02-13T09:48:03;101054.63;;;6.37;98.47
70011;BME280;59543;37.950;-122.338;2023-02-13T09:50:30;101057.03;;;6.29;98.95
70011;BME280;59543;37.950;-122.338;2023-02-13T09:52:57;101049.50;;;6.34;99.29
70011;BME280;59543;37.950;-122.338;2023-02-13T09:55:46;101049.03;;;6.29;99.25
70011;BME280;59543;37.950;-122.338;2023-02-13T10:01:02;101029.78;;;6.00;95.97
70011;BME280;59543;37.950;-122.338;2023-02-13T10:03:30;101042.81;;;5.91;95.17
70011;BME280;59543;37.950;-122.338;2023-02-13T10:08:33;101021.50;;;6.15;93.83
70011;BME280;59543;37.950;-122.338;2023-02-13T10:16:22;101012.47;;;5.92;93.11
70011;BME280;59543;37.950;-122.338;2023-02-13T10:18:56;101017.94;;;5.91;93.12
70011;BME280;59543;37.950;-122.338;2023-02-13T10:21:26;101007.56;;;5.86;94.01
70011;BME280;59543;37.950;-122.338;2023-02-13T10:26:20;101001.06;;;5.90;93.44
70011;BME280;59543;37.950;-122.338;2023-02-13T10:31:39;101001.28;;;5.87;93.33
70011;BME280;59543;37.950;-122.338;2023-02-13T10:34:10;100998.22;;;5.81;93.12
70011;BME280;59543;37.950;-122.338;2023-02-13T10:36:38;100995.78;;;5.78;94.20
70011;BME280;59543;37.950;-122.338;2023-02-13T10:44:03;100987.72;;;5.90;94.19
70011;BME280;59543;37.950;-122.338;2023-02-13T10:49:27;100988.41;;;5.81;94.23
70011;BME280;59543;37.950;-122.338;2023-02-13T10:54:39;101017.63;;;5.83;94.45
70011;BME280;59543;37.950;-122.338;2023-02-13T10:57:23;101004.28;;;5.83;94.03
70011;BME280;59543;37.950;-122.338;2023-02-13T11:02:20;101013.88;;;5.85;94.88
70011;BME280;59543;37.950;-122.338;2023-02-13T11:04:47;101011.44;;;5.82;95.16
70011;BME280;59543;37.950;-122.338;2023-02-13T11:07:14;101011.72;;;5.66;95.14
70011;BME280;59543;37.950;-122.338;2023-02-13T11:09:42;101021.75;;;5.63;96.47
70011;BME280;59543;37.950;-122.338;2023-02-13T11:14:55;101031.28;;;5.91;95.42
70011;BME280;59543;37.950;-122.338;2023-02-13T11:17:21;101032.78;;;5.95;95.79
70011;BME280;59543;37.950;-122.338;2023-02-13T11:19:48;101023.38;;;6.02;95.94
70011;BME280;59543;37.950;-122.338;2023-02-13T11:22:51;101035.97;;;6.00;96.37
70011;BME280;59543;37.950;-122.338;2023-02-13T11:25:17;101036.28;;;6.08;95.88
70011;BME280;59543;37.950;-122.338;2023-02-13T11:27:44;101017.34;;;6.11;96.15
70011;BME280;59543;37.950;-122.338;2023-02-13T11:32:42;101014.78;;;6.10;96.53
70011;BME280;59543;37.950;-122.338;2023-02-13T11:35:27;101010.72;;;6.17;96.99
70011;BME280;59543;37.950;-122.338;2023-02-13T11:40:35;101006.06;;;6.43;96.42
70011;BME280;59543;37.950;-122.338;2023-02-13T11:43:01;101013.84;;;6.46;95.57
70011;BME280;59543;37.950;-122.338;2023-02-13T11:45:27;101019.44;;;6.43;95.69
70011;BME280;59543;37.950;-122.338;2023-02-13T11:47:53;101013.00;;;6.46;96.14
70011;BME280;59543;37.950;-122.338;2023-02-13T11:53:02;101002.28;;;6.70;97.02
70011;BME280;59543;37.950;-122.338;2023-02-13T11:55:30;101000.91;;;6.64;97.51
70011;BME280;59543;37.950;-122.338;2023-02-13T12:00:35;100987.16;;;6.57;96.42
70011;BME280;59543;37.950;-122.338;2023-02-13T12:03:26;100973.06;;;6.44;96.37
70011;BME280;59543;37.950;-122.338;2023-02-13T12:06:00;100972.34;;;6.53;96.66
70011;BME280;59543;37.950;-122.338;2023-02-13T12:08:27;100976.25;;;6.60;96.50
70011;BME280;59543;37.950;-122.338;2023-02-13T12:10:54;100980.88;;;6.70;97.72
70011;BME280;59543;37.950;-122.338;2023-02-13T12:13:40;100975.16;;;6.63;96.63
70011;BME280;59543;37.950;-122.338;2023-02-13T12:16:10;100980.84;;;6.47;96.35
70011;BME280;59543;37.950;-122.338;2023-02-13T12:18:43;100970.91;;;6.60;96.43
70011;BME280;59543;37.950;-122.338;2023-02-13T12:21:44;100974.78;;;6.56;97.83
70011;BME280;59543;37.950;-122.338;2023-02-13T12:26:41;101005.50;;;7.20;95.64
70011;BME280;59543;37.950;-122.338;2023-02-13T12:29:21;100991.28;;;7.08;96.38
70011;BME280;59543;37.950;-122.338;2023-02-13T12:37:05;101018.47;;;6.91;94.23
70011;BME280;59543;37.950;-122.338;2023-02-13T12:39:51;101023.72;;;6.92;93.87
70011;BME280;59543;37.950;-122.338;2023-02-13T12:42:38;101020.41;;;6.88;94.47
70011;BME280;59543;37.950;-122.338;2023-02-13T12:50:27;101009.94;;;6.74;97.39
70011;BME280;59543;37.950;-122.338;2023-02-13T12:53:01;101008.13;;;6.75;98.22
70011;BME280;59543;37.950;-122.338;2023-02-13T12:58:14;100999.31;;;6.61;98.15
70011;BME280;59543;37.950;-122.338;2023-02-13T13:00:46;101011.75;;;6.62;98.99
70011;BME280;59543;37.950;-122.338;2023-02-13T13:13:41;100990.78;;;6.45;100.00
70011;BME280;59543;37.950;-122.338;2023-02-13T13:16:20;100979.06;;;6.59;100.00
70011;BME280;59543;37.950;-122.338;2023-02-13T13:26:49;100981.78;;;7.49;100.00
70011;BME280;59543;37.950;-122.338;2023-02-13T13:29:19;100988.44;;;7.66;100.00
70011;BME280;59543;37.950;-122.338;2023-02-13T13:31:52;100987.34;;;7.68;100.00
70011;BME280;59543;37.950;-122.338;2023-02-13T13:34:20;100995.97;;;7.83;100.00
70011;BME280;59543;37.950;-122.338;2023-02-13T13:36:52;101004.25;;;7.91;100.00
70011;BME280;59543;37.950;-122.338;2023-02-13T13:42:13;100993.69;;;8.11;100.00
70011;BME280;59543;37.950;-122.338;2023-02-13T13:44:45;100989.59;;;8.07;100.00
70011;BME280;59543;37.950;-122.338;2023-02-13T13:47:28;100988.81;;;8.16;100.00
70011;BME280;59543;37.950;-122.338;2023-02-13T13:49:57;101005.59;;;8.18;100.00
70011;BME280;59543;37.950;-122.338;2023-02-13T13:52:28;100998.81;;;8.14;100.00
70011;BME280;59543;37.950;-122.338;2023-02-13T13:54:56;100997.38;;;8.10;100.00
70011;BME280;59543;37.950;-122.338;2023-02-13T14:07:26;101026.88;;;6.97;100.00
70011;BME280;59543;37.950;-122.338;2023-02-13T14:09:57;101036.84;;;7.06;100.00
70011;BME280;59543;37.950;-122.338;2023-02-13T14:14:52;101033.00;;;7.10;100.00
70011;BME280;59543;37.950;-122.338;2023-02-13T14:18:05;101032.16;;;7.10;100.00
70011;BME280;59543;37.950;-122.338;2023-02-13T14:20:18;101041.22;;;6.96;100.00
70011;BME280;59543;37.950;-122.338;2023-02-13T14:22:45;101027.34;;;6.91;100.00
70011;BME280;59543;37.950;-122.338;2023-02-13T14:25:24;101018.78;;;6.63;100.00
70011;BME280;59543;37.950;-122.338;2023-02-13T14:28:00;101027.78;;;6.74;100.00
70011;BME280;59543;37.950;-122.338;2023-02-13T14:30:35;101048.78;;;6.56;100.00
70011;BME280;59543;37.950;-122.338;2023-02-13T14:33:05;101046.16;;;6.43;100.00
70011;BME280;59543;37.950;-122.338;2023-02-13T14:35:33;101056.16;;;6.28;100.00
70011;BME280;59543;37.950;-122.338;2023-02-13T14:38:02;101052.31;;;6.32;100.00
70011;BME280;59543;37.950;-122.338;2023-02-13T14:43:27;101059.41;;;6.45;100.00
70011;BME280;59543;37.950;-122.338;2023-02-13T14:46:36;101057.13;;;6.51;100.00
70011;BME280;59543;37.950;-122.338;2023-02-13T14:49:29;101062.19;;;6.43;100.00
70011;BME280;59543;37.950;-122.338;2023-02-13T14:51:37;101050.03;;;6.39;100.00
70011;BME280;59543;37.950;-122.338;2023-02-13T14:56:50;101050.91;;;6.75;100.00
70011;BME280;59543;37.950;-122.338;2023-02-13T14:59:21;101065.88;;;6.88;100.00
70011;BME280;59543;37.950;-122.338;2023-02-13T15:01:50;101063.75;;;7.05;100.00
70011;BME280;59543;37.950;-122.338;2023-02-13T15:04:30;101076.25;;;7.16;100.00